Terminal Aerodrome Forecast
Issued by NWS Newport/Morehead City, NC

Home | Current Version | Previous Version | Graphics & Text | Print | Product List | Glossary On
Versions: 1 2 3 4 5 6 7 8 9 10 11 12 13 14 15 16 17 18 19
000
FTUS42 KMHX 212300
TAFEWN
TAF
KEWN 212340Z 2200/2224 VRB03KT P6SM SCT008 BKN050
     FM220500 00000KT 4SM BR SCT005 BKN120
     FM221300 15005KT P6SM VCSH SCT015 BKN030=

USA.gov is the U.S. government's official web portal to all federal, state and local government web resources and services.